sensor_id;sensor_type;location;lat;lon;timestamp;P1;durP1;ratioP1;P2;durP2;ratioP2
79227;SDS011;75303;53.496;10.214;2024-01-30T00:01:35;4.68;;;1.33;;
79227;SDS011;75303;53.496;10.214;2024-01-30T00:04:01;5.37;;;1.20;;
79227;SDS011;75303;53.496;10.214;2024-01-30T00:06:27;5.53;;;1.20;;
79227;SDS011;75303;53.496;10.214;2024-01-30T00:08:52;4.93;;;1.83;;
79227;SDS011;75303;53.496;10.214;2024-01-30T00:11:18;5.00;;;2.05;;
79227;SDS011;75303;53.496;10.214;2024-01-30T00:13:44;5.10;;;1.15;;
79227;SDS011;75303;53.496;10.214;2024-01-30T00:16:19;4.70;;;1.48;;
79227;SDS011;75303;53.496;10.214;2024-01-30T00:18:45;4.93;;;1.40;;
79227;SDS011;75303;53.496;10.214;2024-01-30T00:21:10;5.75;;;1.35;;
79227;SDS011;75303;53.496;10.214;2024-01-30T00:23:36;3.47;;;1.58;;
79227;SDS011;75303;53.496;10.214;2024-01-30T00:26:01;4.30;;;1.00;;
79227;SDS011;75303;53.496;10.214;2024-01-30T00:28:27;4.82;;;1.02;;
79227;SDS011;75303;53.496;10.214;2024-01-30T00:30:52;4.07;;;1.10;;
79227;SDS011;75303;53.496;10.214;2024-01-30T00:33:18;5.07;;;1.67;;
79227;SDS011;75303;53.496;10.214;2024-01-30T00:35:43;4.73;;;1.07;;
79227;SDS011;75303;53.496;10.214;2024-01-30T00:38:08;5.63;;;1.20;;
79227;SDS011;75303;53.496;10.214;2024-01-30T00:40:33;4.25;;;1.25;;
79227;SDS011;75303;53.496;10.214;2024-01-30T00:42:59;2.83;;;1.10;;
79227;SDS011;75303;53.496;10.214;2024-01-30T00:45:25;3.92;;;1.40;;
79227;SDS011;75303;53.496;10.214;2024-01-30T00:47:50;5.72;;;1.33;;
79227;SDS011;75303;53.496;10.214;2024-01-30T00:50:15;3.92;;;1.30;;
79227;SDS011;75303;53.496;10.214;2024-01-30T00:52:41;2.93;;;1.00;;
79227;SDS011;75303;53.496;10.214;2024-01-30T00:55:07;5.53;;;1.17;;
79227;SDS011;75303;53.496;10.214;2024-01-30T00:57:32;5.70;;;1.53;;
79227;SDS011;75303;53.496;10.214;2024-01-30T00:59:58;4.30;;;1.23;;
79227;SDS011;75303;53.496;10.214;2024-01-30T01:02:23;6.03;;;1.48;;
79227;SDS011;75303;53.496;10.214;2024-01-30T01:04:48;5.03;;;1.45;;
79227;SDS011;75303;53.496;10.214;2024-01-30T01:07:14;6.70;;;1.63;;
79227;SDS011;75303;53.496;10.214;2024-01-30T01:09:39;4.17;;;1.00;;
79227;SDS011;75303;53.496;10.214;2024-01-30T01:12:05;4.63;;;1.30;;
79227;SDS011;75303;53.496;10.214;2024-01-30T01:14:30;6.20;;;1.35;;
79227;SDS011;75303;53.496;10.214;2024-01-30T01:16:56;4.57;;;1.20;;
79227;SDS011;75303;53.496;10.214;2024-01-30T01:19:21;3.97;;;1.30;;
79227;SDS011;75303;53.496;10.214;2024-01-30T01:21:47;4.07;;;1.23;;
79227;SDS011;75303;53.496;10.214;2024-01-30T01:24:12;3.60;;;1.40;;
79227;SDS011;75303;53.496;10.214;2024-01-30T01:26:38;2.60;;;1.10;;
79227;SDS011;75303;53.496;10.214;2024-01-30T01:29:03;3.40;;;1.27;;
79227;SDS011;75303;53.496;10.214;2024-01-30T01:31:34;5.00;;;0.95;;
79227;SDS011;75303;53.496;10.214;2024-01-30T01:34:11;2.80;;;0.90;;
79227;SDS011;75303;53.496;10.214;2024-01-30T01:36:37;3.95;;;0.98;;
79227;SDS011;75303;53.496;10.214;2024-01-30T01:39:03;4.18;;;1.10;;
79227;SDS011;75303;53.496;10.214;2024-01-30T01:41:32;4.10;;;1.17;;
79227;SDS011;75303;53.496;10.214;2024-01-30T01:43:58;8.98;;;1.48;;
79227;SDS011;75303;53.496;10.214;2024-01-30T01:46:26;4.95;;;1.27;;
79227;SDS011;75303;53.496;10.214;2024-01-30T01:48:52;5.72;;;1.48;;
79227;SDS011;75303;53.496;10.214;2024-01-30T01:51:18;4.65;;;1.60;;
79227;SDS011;75303;53.496;10.214;2024-01-30T01:53:44;5.22;;;1.58;;
79227;SDS011;75303;53.496;10.214;2024-01-30T01:56:09;3.15;;;0.90;;
79227;SDS011;75303;53.496;10.214;2024-01-30T01:58:35;3.10;;;1.15;;
79227;SDS011;75303;53.496;10.214;2024-01-30T02:01:01;2.88;;;1.27;;
79227;SDS011;75303;53.496;10.214;2024-01-30T02:03:27;3.95;;;1.30;;
79227;SDS011;75303;53.496;10.214;2024-01-30T02:05:52;3.55;;;1.13;;
79227;SDS011;75303;53.496;10.214;2024-01-30T02:08:19;4.32;;;1.17;;
79227;SDS011;75303;53.496;10.214;2024-01-30T02:10:45;5.72;;;1.58;;
79227;SDS011;75303;53.496;10.214;2024-01-30T02:13:10;3.33;;;1.23;;
79227;SDS011;75303;53.496;10.214;2024-01-30T02:15:35;3.17;;;0.98;;
79227;SDS011;75303;53.496;10.214;2024-01-30T02:18:01;2.73;;;0.70;;
79227;SDS011;75303;53.496;10.214;2024-01-30T02:20:26;4.75;;;0.93;;
79227;SDS011;75303;53.496;10.214;2024-01-30T02:22:56;5.13;;;1.40;;
79227;SDS011;75303;53.496;10.214;2024-01-30T02:25:33;4.13;;;0.98;;
79227;SDS011;75303;53.496;10.214;2024-01-30T02:28:09;3.70;;;1.08;;
79227;SDS011;75303;53.496;10.214;2024-01-30T02:30:35;3.55;;;0.90;;
79227;SDS011;75303;53.496;10.214;2024-01-30T02:33:01;3.50;;;1.40;;
79227;SDS011;75303;53.496;10.214;2024-01-30T02:35:26;3.03;;;1.00;;
79227;SDS011;75303;53.496;10.214;2024-01-30T02:37:51;3.93;;;1.17;;
79227;SDS011;75303;53.496;10.214;2024-01-30T02:40:17;4.03;;;1.50;;
79227;SDS011;75303;53.496;10.214;2024-01-30T02:42:42;4.00;;;1.23;;
79227;SDS011;75303;53.496;10.214;2024-01-30T02:45:09;5.43;;;1.35;;
79227;SDS011;75303;53.496;10.214;2024-01-30T02:47:35;4.45;;;1.05;;
79227;SDS011;75303;53.496;10.214;2024-01-30T02:50:01;7.70;;;1.52;;
79227;SDS011;75303;53.496;10.214;2024-01-30T02:52:26;13.55;;;1.90;;
79227;SDS011;75303;53.496;10.214;2024-01-30T02:54:52;6.78;;;1.58;;
79227;SDS011;75303;53.496;10.214;2024-01-30T02:57:17;3.77;;;0.80;;
79227;SDS011;75303;53.496;10.214;2024-01-30T02:59:42;3.43;;;0.63;;
79227;SDS011;75303;53.496;10.214;2024-01-30T03:02:07;3.00;;;1.20;;
79227;SDS011;75303;53.496;10.214;2024-01-30T03:04:33;4.80;;;1.03;;
79227;SDS011;75303;53.496;10.214;2024-01-30T03:06:58;3.17;;;1.40;;
79227;SDS011;75303;53.496;10.214;2024-01-30T03:09:23;3.78;;;1.52;;
79227;SDS011;75303;53.496;10.214;2024-01-30T03:11:49;6.17;;;1.43;;
79227;SDS011;75303;53.496;10.214;2024-01-30T03:14:14;6.80;;;1.70;;
79227;SDS011;75303;53.496;10.214;2024-01-30T03:16:39;6.30;;;1.50;;
79227;SDS011;75303;53.496;10.214;2024-01-30T03:19:08;5.23;;;2.23;;
79227;SDS011;75303;53.496;10.214;2024-01-30T03:21:34;6.32;;;1.70;;
79227;SDS011;75303;53.496;10.214;2024-01-30T03:23:59;5.97;;;1.67;;
79227;SDS011;75303;53.496;10.214;2024-01-30T03:26:25;5.70;;;1.27;;
79227;SDS011;75303;53.496;10.214;2024-01-30T03:28:50;3.93;;;1.47;;
79227;SDS011;75303;53.496;10.214;2024-01-30T03:31:16;5.43;;;1.35;;
79227;SDS011;75303;53.496;10.214;2024-01-30T03:33:41;5.00;;;1.20;;
79227;SDS011;75303;53.496;10.214;2024-01-30T03:36:07;5.23;;;1.73;;
79227;SDS011;75303;53.496;10.214;2024-01-30T03:38:33;4.40;;;1.75;;
79227;SDS011;75303;53.496;10.214;2024-01-30T03:40:59;5.60;;;2.15;;
79227;SDS011;75303;53.496;10.214;2024-01-30T03:43:24;6.22;;;1.98;;
79227;SDS011;75303;53.496;10.214;2024-01-30T03:45:50;9.37;;;2.53;;
79227;SDS011;75303;53.496;10.214;2024-01-30T03:48:15;5.80;;;1.83;;
79227;SDS011;75303;53.496;10.214;2024-01-30T03:50:40;5.10;;;2.47;;
79227;SDS011;75303;53.496;10.214;2024-01-30T03:53:06;4.93;;;2.00;;
79227;SDS011;75303;53.496;10.214;2024-01-30T03:55:31;8.37;;;2.73;;
79227;SDS011;75303;53.496;10.214;2024-01-30T03:57:56;8.30;;;3.50;;
79227;SDS011;75303;53.496;10.214;2024-01-30T04:00:22;7.93;;;3.50;;
79227;SDS011;75303;53.496;10.214;2024-01-30T04:02:47;6.17;;;2.83;;
79227;SDS011;75303;53.496;10.214;2024-01-30T04:05:12;7.63;;;3.40;;
79227;SDS011;75303;53.496;10.214;2024-01-30T04:07:38;6.25;;;3.10;;
79227;SDS011;75303;53.496;10.214;2024-01-30T04:10:03;8.80;;;3.55;;
79227;SDS011;75303;53.496;10.214;2024-01-30T04:12:30;7.55;;;3.33;;
79227;SDS011;75303;53.496;10.214;2024-01-30T04:14:56;9.75;;;4.28;;
79227;SDS011;75303;53.496;10.214;2024-01-30T04:17:22;5.75;;;3.03;;
79227;SDS011;75303;53.496;10.214;2024-01-30T04:19:47;8.25;;;3.60;;
79227;SDS011;75303;53.496;10.214;2024-01-30T04:22:12;7.75;;;3.88;;
79227;SDS011;75303;53.496;10.214;2024-01-30T04:24:38;6.00;;;3.30;;
79227;SDS011;75303;53.496;10.214;2024-01-30T04:27:03;7.50;;;3.35;;
79227;SDS011;75303;53.496;10.214;2024-01-30T04:29:29;7.28;;;3.83;;
79227;SDS011;75303;53.496;10.214;2024-01-30T04:31:54;8.27;;;4.53;;
79227;SDS011;75303;53.496;10.214;2024-01-30T04:34:19;7.97;;;4.07;;
79227;SDS011;75303;53.496;10.214;2024-01-30T04:36:45;8.00;;;4.03;;
79227;SDS011;75303;53.496;10.214;2024-01-30T04:39:11;7.05;;;4.05;;
79227;SDS011;75303;53.496;10.214;2024-01-30T04:41:36;6.60;;;3.73;;
79227;SDS011;75303;53.496;10.214;2024-01-30T04:44:01;8.53;;;4.50;;
79227;SDS011;75303;53.496;10.214;2024-01-30T04:46:27;11.13;;;3.97;;
79227;SDS011;75303;53.496;10.214;2024-01-30T04:48:53;9.07;;;3.97;;
79227;SDS011;75303;53.496;10.214;2024-01-30T04:51:18;9.20;;;4.32;;
79227;SDS011;75303;53.496;10.214;2024-01-30T04:53:43;6.77;;;4.03;;
79227;SDS011;75303;53.496;10.214;2024-01-30T04:56:09;8.97;;;4.53;;
79227;SDS011;75303;53.496;10.214;2024-01-30T04:58:34;7.40;;;3.10;;
79227;SDS011;75303;53.496;10.214;2024-01-30T05:00:59;6.37;;;2.93;;
79227;SDS011;75303;53.496;10.214;2024-01-30T05:03:25;5.73;;;3.33;;
79227;SDS011;75303;53.496;10.214;2024-01-30T05:05:50;6.50;;;3.83;;
79227;SDS011;75303;53.496;10.214;2024-01-30T05:08:15;6.80;;;3.10;;
79227;SDS011;75303;53.496;10.214;2024-01-30T05:10:41;6.27;;;2.83;;
79227;SDS011;75303;53.496;10.214;2024-01-30T05:13:06;6.70;;;3.23;;
79227;SDS011;75303;53.496;10.214;2024-01-30T05:15:31;6.13;;;2.80;;
79227;SDS011;75303;53.496;10.214;2024-01-30T05:17:57;6.27;;;2.80;;
79227;SDS011;75303;53.496;10.214;2024-01-30T05:20:22;7.07;;;3.00;;
79227;SDS011;75303;53.496;10.214;2024-01-30T05:22:47;7.10;;;2.87;;
79227;SDS011;75303;53.496;10.214;2024-01-30T05:25:13;5.77;;;2.03;;
79227;SDS011;75303;53.496;10.214;2024-01-30T05:27:38;5.40;;;2.60;;
79227;SDS011;75303;53.496;10.214;2024-01-30T05:30:05;5.82;;;2.30;;
79227;SDS011;75303;53.496;10.214;2024-01-30T05:32:31;6.63;;;2.53;;
79227;SDS011;75303;53.496;10.214;2024-01-30T05:34:57;5.90;;;2.60;;
79227;SDS011;75303;53.496;10.214;2024-01-30T05:37:22;7.03;;;2.60;;
79227;SDS011;75303;53.496;10.214;2024-01-30T05:39:47;7.80;;;2.80;;
79227;SDS011;75303;53.496;10.214;2024-01-30T05:42:12;7.47;;;2.80;;
79227;SDS011;75303;53.496;10.214;2024-01-30T05:44:38;5.45;;;2.33;;
79227;SDS011;75303;53.496;10.214;2024-01-30T05:47:03;7.03;;;2.37;;
79227;SDS011;75303;53.496;10.214;2024-01-30T05:49:29;4.10;;;1.92;;
79227;SDS011;75303;53.496;10.214;2024-01-30T05:51:54;7.43;;;1.93;;
79227;SDS011;75303;53.496;10.214;2024-01-30T05:54:19;5.47;;;1.83;;
79227;SDS011;75303;53.496;10.214;2024-01-30T05:56:44;7.33;;;2.30;;
79227;SDS011;75303;53.496;10.214;2024-01-30T05:59:10;6.90;;;2.77;;
79227;SDS011;75303;53.496;10.214;2024-01-30T06:01:35;6.20;;;2.40;;
79227;SDS011;75303;53.496;10.214;2024-01-30T06:04:00;5.13;;;2.13;;
79227;SDS011;75303;53.496;10.214;2024-01-30T06:06:26;5.75;;;2.33;;
79227;SDS011;75303;53.496;10.214;2024-01-30T06:08:52;6.72;;;2.45;;
79227;SDS011;75303;53.496;10.214;2024-01-30T06:11:20;5.72;;;1.85;;
79227;SDS011;75303;53.496;10.214;2024-01-30T06:13:45;5.90;;;2.00;;
79227;SDS011;75303;53.496;10.214;2024-01-30T06:16:11;4.28;;;1.85;;
79227;SDS011;75303;53.496;10.214;2024-01-30T06:18:37;6.45;;;2.05;;
79227;SDS011;75303;53.496;10.214;2024-01-30T06:21:03;5.68;;;2.25;;
79227;SDS011;75303;53.496;10.214;2024-01-30T06:23:29;4.35;;;1.45;;
79227;SDS011;75303;53.496;10.214;2024-01-30T06:25:55;9.17;;;2.73;;
79227;SDS011;75303;53.496;10.214;2024-01-30T06:28:20;5.13;;;1.97;;
79227;SDS011;75303;53.496;10.214;2024-01-30T06:30:45;4.38;;;1.83;;
79227;SDS011;75303;53.496;10.214;2024-01-30T06:33:14;7.55;;;2.60;;
79227;SDS011;75303;53.496;10.214;2024-01-30T06:35:40;5.35;;;2.05;;
79227;SDS011;75303;53.496;10.214;2024-01-30T06:38:05;8.25;;;2.03;;
79227;SDS011;75303;53.496;10.214;2024-01-30T06:40:31;6.82;;;1.88;;
79227;SDS011;75303;53.496;10.214;2024-01-30T06:42:56;6.73;;;2.73;;
79227;SDS011;75303;53.496;10.214;2024-01-30T06:45:22;8.85;;;3.10;;
79227;SDS011;75303;53.496;10.214;2024-01-30T06:47:47;6.93;;;2.72;;
79227;SDS011;75303;53.496;10.214;2024-01-30T06:50:13;7.60;;;3.17;;
79227;SDS011;75303;53.496;10.214;2024-01-30T06:52:38;8.75;;;2.63;;
79227;SDS011;75303;53.496;10.214;2024-01-30T06:55:03;8.97;;;2.80;;
79227;SDS011;75303;53.496;10.214;2024-01-30T06:57:29;5.75;;;2.60;;
79227;SDS011;75303;53.496;10.214;2024-01-30T06:59:55;11.88;;;3.38;;
79227;SDS011;75303;53.496;10.214;2024-01-30T07:02:21;7.20;;;2.95;;
79227;SDS011;75303;53.496;10.214;2024-01-30T07:04:46;6.93;;;3.38;;
79227;SDS011;75303;53.496;10.214;2024-01-30T07:07:12;6.78;;;2.90;;
79227;SDS011;75303;53.496;10.214;2024-01-30T07:09:38;9.95;;;3.53;;
79227;SDS011;75303;53.496;10.214;2024-01-30T07:12:04;7.32;;;2.67;;
79227;SDS011;75303;53.496;10.214;2024-01-30T07:14:29;7.03;;;2.50;;
79227;SDS011;75303;53.496;10.214;2024-01-30T07:16:55;8.40;;;3.10;;
79227;SDS011;75303;53.496;10.214;2024-01-30T07:19:20;9.40;;;3.05;;
79227;SDS011;75303;53.496;10.214;2024-01-30T07:21:45;8.23;;;3.67;;
79227;SDS011;75303;53.496;10.214;2024-01-30T07:24:11;9.77;;;2.97;;
79227;SDS011;75303;53.496;10.214;2024-01-30T07:26:37;9.18;;;3.20;;
79227;SDS011;75303;53.496;10.214;2024-01-30T07:29:05;9.48;;;3.80;;
79227;SDS011;75303;53.496;10.214;2024-01-30T07:31:55;9.50;;;3.28;;
79227;SDS011;75303;53.496;10.214;2024-01-30T07:34:20;7.60;;;4.17;;
79227;SDS011;75303;53.496;10.214;2024-01-30T07:36:46;12.35;;;3.50;;
79227;SDS011;75303;53.496;10.214;2024-01-30T07:39:12;6.60;;;3.25;;
79227;SDS011;75303;53.496;10.214;2024-01-30T07:41:45;8.05;;;3.72;;
79227;SDS011;75303;53.496;10.214;2024-01-30T07:44:13;11.05;;;3.30;;
79227;SDS011;75303;53.496;10.214;2024-01-30T07:46:42;12.02;;;3.58;;
79227;SDS011;75303;53.496;10.214;2024-01-30T07:49:07;9.73;;;2.87;;
79227;SDS011;75303;53.496;10.214;2024-01-30T07:51:35;9.13;;;3.58;;
79227;SDS011;75303;53.496;10.214;2024-01-30T07:54:04;8.25;;;3.75;;
79227;SDS011;75303;53.496;10.214;2024-01-30T07:56:30;9.23;;;3.30;;
79227;SDS011;75303;53.496;10.214;2024-01-30T07:58:55;7.88;;;3.17;;
79227;SDS011;75303;53.496;10.214;2024-01-30T08:01:20;11.90;;;3.70;;
79227;SDS011;75303;53.496;10.214;2024-01-30T08:03:46;9.40;;;3.13;;
79227;SDS011;75303;53.496;10.214;2024-01-30T08:06:11;9.60;;;3.33;;
79227;SDS011;75303;53.496;10.214;2024-01-30T08:08:36;8.35;;;3.28;;
79227;SDS011;75303;53.496;10.214;2024-01-30T08:11:05;9.10;;;3.30;;
79227;SDS011;75303;53.496;10.214;2024-01-30T08:13:31;7.95;;;3.40;;
79227;SDS011;75303;53.496;10.214;2024-01-30T08:15:56;8.43;;;3.53;;
79227;SDS011;75303;53.496;10.214;2024-01-30T08:18:21;10.70;;;3.73;;
79227;SDS011;75303;53.496;10.214;2024-01-30T08:20:47;8.57;;;3.17;;
79227;SDS011;75303;53.496;10.214;2024-01-30T08:23:12;9.73;;;3.75;;
79227;SDS011;75303;53.496;10.214;2024-01-30T08:25:38;9.97;;;3.87;;
79227;SDS011;75303;53.496;10.214;2024-01-30T08:28:03;10.20;;;3.50;;
79227;SDS011;75303;53.496;10.214;2024-01-30T08:30:29;13.57;;;3.35;;
79227;SDS011;75303;53.496;10.214;2024-01-30T08:32:54;6.70;;;2.97;;
79227;SDS011;75303;53.496;10.214;2024-01-30T08:35:19;12.23;;;4.10;;
79227;SDS011;75303;53.496;10.214;2024-01-30T08:37:45;10.50;;;4.03;;
79227;SDS011;75303;53.496;10.214;2024-01-30T08:40:10;9.67;;;3.93;;
79227;SDS011;75303;53.496;10.214;2024-01-30T08:42:35;8.80;;;3.08;;
79227;SDS011;75303;53.496;10.214;2024-01-30T08:45:01;7.85;;;4.18;;
79227;SDS011;75303;53.496;10.214;2024-01-30T08:47:26;9.93;;;3.22;;
79227;SDS011;75303;53.496;10.214;2024-01-30T08:49:52;11.68;;;3.83;;
79227;SDS011;75303;53.496;10.214;2024-01-30T08:52:17;12.23;;;3.77;;
79227;SDS011;75303;53.496;10.214;2024-01-30T08:54:42;10.27;;;3.70;;
79227;SDS011;75303;53.496;10.214;2024-01-30T08:57:08;11.80;;;3.45;;
79227;SDS011;75303;53.496;10.214;2024-01-30T08:59:33;8.40;;;3.73;;
79227;SDS011;75303;53.496;10.214;2024-01-30T09:01:58;13.53;;;4.57;;
79227;SDS011;75303;53.496;10.214;2024-01-30T09:04:24;12.88;;;4.63;;
79227;SDS011;75303;53.496;10.214;2024-01-30T09:06:49;11.57;;;4.90;;
79227;SDS011;75303;53.496;10.214;2024-01-30T09:09:15;11.48;;;3.78;;
79227;SDS011;75303;53.496;10.214;2024-01-30T09:11:40;13.32;;;3.63;;
79227;SDS011;75303;53.496;10.214;2024-01-30T09:14:06;10.80;;;4.10;;
79227;SDS011;75303;53.496;10.214;2024-01-30T09:16:31;9.82;;;3.65;;
79227;SDS011;75303;53.496;10.214;2024-01-30T09:18:56;9.77;;;4.53;;
79227;SDS011;75303;53.496;10.214;2024-01-30T09:21:22;10.80;;;4.30;;
79227;SDS011;75303;53.496;10.214;2024-01-30T09:23:48;10.52;;;3.67;;
79227;SDS011;75303;53.496;10.214;2024-01-30T09:26:13;10.80;;;4.38;;
79227;SDS011;75303;53.496;10.214;2024-01-30T09:28:38;6.97;;;3.33;;
79227;SDS011;75303;53.496;10.214;2024-01-30T09:31:04;12.17;;;4.80;;
79227;SDS011;75303;53.496;10.214;2024-01-30T09:33:29;7.65;;;3.25;;
79227;SDS011;75303;53.496;10.214;2024-01-30T09:35:54;9.48;;;3.78;;
79227;SDS011;75303;53.496;10.214;2024-01-30T09:38:20;8.77;;;3.60;;
79227;SDS011;75303;53.496;10.214;2024-01-30T09:40:46;10.02;;;3.17;;
79227;SDS011;75303;53.496;10.214;2024-01-30T09:43:22;9.90;;;3.38;;
79227;SDS011;75303;53.496;10.214;2024-01-30T09:45:48;8.77;;;3.38;;
79227;SDS011;75303;53.496;10.214;2024-01-30T09:48:15;12.00;;;4.28;;
79227;SDS011;75303;53.496;10.214;2024-01-30T09:50:41;11.30;;;4.20;;
79227;SDS011;75303;53.496;10.214;2024-01-30T09:53:06;9.48;;;3.95;;
79227;SDS011;75303;53.496;10.214;2024-01-30T09:55:34;8.85;;;3.55;;
79227;SDS011;75303;53.496;10.214;2024-01-30T09:58:01;10.38;;;4.63;;
79227;SDS011;75303;53.496;10.214;2024-01-30T10:00:27;10.93;;;3.65;;
79227;SDS011;75303;53.496;10.214;2024-01-30T10:02:53;11.18;;;3.95;;
79227;SDS011;75303;53.496;10.214;2024-01-30T10:05:19;7.05;;;3.67;;
79227;SDS011;75303;53.496;10.214;2024-01-30T10:07:55;9.52;;;4.03;;
79227;SDS011;75303;53.496;10.214;2024-01-30T10:10:25;7.43;;;3.75;;
79227;SDS011;75303;53.496;10.214;2024-01-30T10:12:51;9.13;;;3.90;;
79227;SDS011;75303;53.496;10.214;2024-01-30T10:15:17;8.75;;;3.25;;
79227;SDS011;75303;53.496;10.214;2024-01-30T10:17:44;9.52;;;3.78;;
79227;SDS011;75303;53.496;10.214;2024-01-30T10:20:10;7.55;;;3.30;;
79227;SDS011;75303;53.496;10.214;2024-01-30T10:22:35;9.80;;;3.72;;
79227;SDS011;75303;53.496;10.214;2024-01-30T10:25:01;7.80;;;3.45;;
79227;SDS011;75303;53.496;10.214;2024-01-30T10:27:26;9.23;;;4.00;;
79227;SDS011;75303;53.496;10.214;2024-01-30T10:29:52;9.32;;;4.25;;
79227;SDS011;75303;53.496;10.214;2024-01-30T10:32:18;11.93;;;5.00;;
79227;SDS011;75303;53.496;10.214;2024-01-30T10:34:45;9.63;;;4.20;;
79227;SDS011;75303;53.496;10.214;2024-01-30T10:37:11;10.75;;;4.22;;
79227;SDS011;75303;53.496;10.214;2024-01-30T10:39:45;9.30;;;3.83;;
79227;SDS011;75303;53.496;10.214;2024-01-30T10:42:15;9.80;;;4.25;;
79227;SDS011;75303;53.496;10.214;2024-01-30T10:47:26;22.20;;;7.78;;
79227;SDS011;75303;53.496;10.214;2024-01-30T10:49:53;9.88;;;3.78;;
79227;SDS011;75303;53.496;10.214;2024-01-30T10:52:19;8.52;;;3.60;;
79227;SDS011;75303;53.496;10.214;2024-01-30T10:54:45;8.63;;;4.00;;
79227;SDS011;75303;53.496;10.214;2024-01-30T10:57:12;10.43;;;3.78;;
79227;SDS011;75303;53.496;10.214;2024-01-30T10:59:38;11.48;;;4.28;;
79227;SDS011;75303;53.496;10.214;2024-01-30T11:02:04;7.30;;;3.05;;
79227;SDS011;75303;53.496;10.214;2024-01-30T11:04:37;10.60;;;3.88;;
79227;SDS011;75303;53.496;10.214;2024-01-30T11:07:13;10.18;;;3.50;;
79227;SDS011;75303;53.496;10.214;2024-01-30T11:09:40;11.93;;;3.53;;
79227;SDS011;75303;53.496;10.214;2024-01-30T11:12:11;11.32;;;3.90;;
79227;SDS011;75303;53.496;10.214;2024-01-30T11:14:37;10.25;;;3.70;;
79227;SDS011;75303;53.496;10.214;2024-01-30T11:17:05;10.73;;;3.45;;
79227;SDS011;75303;53.496;10.214;2024-01-30T11:19:30;8.82;;;3.08;;
79227;SDS011;75303;53.496;10.214;2024-01-30T11:21:56;9.20;;;3.83;;
79227;SDS011;75303;53.496;10.214;2024-01-30T11:24:22;9.93;;;3.20;;
79227;SDS011;75303;53.496;10.214;2024-01-30T11:26:49;7.28;;;3.28;;
79227;SDS011;75303;53.496;10.214;2024-01-30T11:29:18;9.30;;;3.33;;
79227;SDS011;75303;53.496;10.214;2024-01-30T11:31:57;7.43;;;3.53;;
79227;SDS011;75303;53.496;10.214;2024-01-30T11:34:23;7.28;;;3.10;;
79227;SDS011;75303;53.496;10.214;2024-01-30T11:36:52;9.23;;;3.53;;
79227;SDS011;75303;53.496;10.214;2024-01-30T11:39:25;7.15;;;3.13;;
79227;SDS011;75303;53.496;10.214;2024-01-30T11:41:51;9.30;;;4.20;;
79227;SDS011;75303;53.496;10.214;2024-01-30T11:44:18;11.30;;;4.03;;
79227;SDS011;75303;53.496;10.214;2024-01-30T11:46:45;9.43;;;3.88;;
79227;SDS011;75303;53.496;10.214;2024-01-30T11:49:11;9.40;;;3.10;;
79227;SDS011;75303;53.496;10.214;2024-01-30T11:51:37;12.02;;;4.53;;
79227;SDS011;75303;53.496;10.214;2024-01-30T11:54:02;14.35;;;3.78;;
79227;SDS011;75303;53.496;10.214;2024-01-30T11:56:28;8.63;;;3.65;;
79227;SDS011;75303;53.496;10.214;2024-01-30T11:58:53;9.32;;;3.38;;
79227;SDS011;75303;53.496;10.214;2024-01-30T12:01:20;7.25;;;3.10;;
79227;SDS011;75303;53.496;10.214;2024-01-30T12:03:51;7.93;;;3.03;;
79227;SDS011;75303;53.496;10.214;2024-01-30T12:06:17;8.32;;;3.42;;
79227;SDS011;75303;53.496;10.214;2024-01-30T12:08:42;8.88;;;3.40;;
79227;SDS011;75303;53.496;10.214;2024-01-30T12:11:08;6.65;;;3.35;;
79227;SDS011;75303;53.496;10.214;2024-01-30T12:13:33;8.68;;;3.72;;
79227;SDS011;75303;53.496;10.214;2024-01-30T12:15:59;9.88;;;3.92;;
79227;SDS011;75303;53.496;10.214;2024-01-30T12:18:26;10.23;;;3.67;;
79227;SDS011;75303;53.496;10.214;2024-01-30T12:21:00;11.50;;;3.42;;
79227;SDS011;75303;53.496;10.214;2024-01-30T12:23:29;9.32;;;3.80;;
79227;SDS011;75303;53.496;10.214;2024-01-30T12:25:54;9.52;;;3.53;;
79227;SDS011;75303;53.496;10.214;2024-01-30T12:28:20;7.32;;;2.88;;
79227;SDS011;75303;53.496;10.214;2024-01-30T12:30:46;6.32;;;3.20;;
79227;SDS011;75303;53.496;10.214;2024-01-30T12:33:17;8.00;;;3.00;;
79227;SDS011;75303;53.496;10.214;2024-01-30T12:35:47;13.82;;;4.22;;
79227;SDS011;75303;53.496;10.214;2024-01-30T12:38:13;9.70;;;3.78;;
79227;SDS011;75303;53.496;10.214;2024-01-30T12:40:39;8.00;;;3.08;;
79227;SDS011;75303;53.496;10.214;2024-01-30T12:43:04;9.48;;;3.58;;
79227;SDS011;75303;53.496;10.214;2024-01-30T12:45:30;33.17;;;17.10;;
79227;SDS011;75303;53.496;10.214;2024-01-30T12:47:55;17.80;;;5.88;;
79227;SDS011;75303;53.496;10.214;2024-01-30T12:50:20;24.38;;;8.00;;
79227;SDS011;75303;53.496;10.214;2024-01-30T12:52:46;9.25;;;3.67;;
79227;SDS011;75303;53.496;10.214;2024-01-30T12:55:11;8.93;;;3.33;;
79227;SDS011;75303;53.496;10.214;2024-01-30T12:57:37;9.07;;;3.40;;
79227;SDS011;75303;53.496;10.214;2024-01-30T13:00:04;10.38;;;4.22;;
79227;SDS011;75303;53.496;10.214;2024-01-30T13:02:33;6.63;;;3.17;;
79227;SDS011;75303;53.496;10.214;2024-01-30T13:05:01;22.77;;;7.93;;
79227;SDS011;75303;53.496;10.214;2024-01-30T13:07:29;10.70;;;3.35;;
79227;SDS011;75303;53.496;10.214;2024-01-30T13:09:55;8.55;;;3.70;;
79227;SDS011;75303;53.496;10.214;2024-01-30T13:12:27;11.57;;;3.35;;
79227;SDS011;75303;53.496;10.214;2024-01-30T13:14:53;11.20;;;3.05;;
79227;SDS011;75303;53.496;10.214;2024-01-30T13:17:18;8.57;;;3.22;;
79227;SDS011;75303;53.496;10.214;2024-01-30T13:19:44;9.93;;;3.37;;
79227;SDS011;75303;53.496;10.214;2024-01-30T13:22:09;8.37;;;3.10;;
79227;SDS011;75303;53.496;10.214;2024-01-30T13:24:34;10.37;;;3.17;;
79227;SDS011;75303;53.496;10.214;2024-01-30T13:26:59;10.13;;;3.60;;
79227;SDS011;75303;53.496;10.214;2024-01-30T13:29:25;7.88;;;2.97;;
79227;SDS011;75303;53.496;10.214;2024-01-30T13:31:50;9.77;;;3.03;;
79227;SDS011;75303;53.496;10.214;2024-01-30T13:34:15;9.57;;;3.87;;
79227;SDS011;75303;53.496;10.214;2024-01-30T13:36:41;6.97;;;2.85;;
79227;SDS011;75303;53.496;10.214;2024-01-30T13:39:07;9.50;;;3.03;;
79227;SDS011;75303;53.496;10.214;2024-01-30T13:41:34;6.20;;;2.70;;
79227;SDS011;75303;53.496;10.214;2024-01-30T13:44:00;8.00;;;2.80;;
79227;SDS011;75303;53.496;10.214;2024-01-30T13:46:28;13.77;;;3.67;;
79227;SDS011;75303;53.496;10.214;2024-01-30T13:48:53;8.23;;;3.40;;
79227;SDS011;75303;53.496;10.214;2024-01-30T13:51:19;9.73;;;2.93;;
79227;SDS011;75303;53.496;10.214;2024-01-30T13:53:44;7.43;;;2.10;;
79227;SDS011;75303;53.496;10.214;2024-01-30T13:56:09;6.93;;;2.67;;
79227;SDS011;75303;53.496;10.214;2024-01-30T13:58:35;7.57;;;2.67;;
79227;SDS011;75303;53.496;10.214;2024-01-30T14:01:01;5.80;;;2.47;;
79227;SDS011;75303;53.496;10.214;2024-01-30T14:03:27;8.80;;;2.40;;
79227;SDS011;75303;53.496;10.214;2024-01-30T14:05:52;7.97;;;2.35;;
79227;SDS011;75303;53.496;10.214;2024-01-30T14:08:18;9.18;;;2.42;;
79227;SDS011;75303;53.496;10.214;2024-01-30T14:10:45;7.20;;;2.88;;
79227;SDS011;75303;53.496;10.214;2024-01-30T14:13:10;6.97;;;2.33;;
79227;SDS011;75303;53.496;10.214;2024-01-30T14:15:36;8.70;;;2.72;;
79227;SDS011;75303;53.496;10.214;2024-01-30T14:18:02;7.47;;;3.08;;
79227;SDS011;75303;53.496;10.214;2024-01-30T14:20:27;8.82;;;3.28;;
79227;SDS011;75303;53.496;10.214;2024-01-30T14:22:53;12.80;;;4.65;;
79227;SDS011;75303;53.496;10.214;2024-01-30T14:25:20;13.00;;;3.78;;
79227;SDS011;75303;53.496;10.214;2024-01-30T14:27:45;9.30;;;3.13;;
79227;SDS011;75303;53.496;10.214;2024-01-30T14:36:54;7.82;;;2.78;;